createdAt,value
2023-02-19T00:01:57.195Z,98934.69
2023-02-19T00:04:05.866Z,98933.59
2023-02-19T00:06:11.347Z,98936.70
2023-02-19T00:08:13.978Z,98930.27
2023-02-19T00:10:16.756Z,98931.98
2023-02-19T00:12:19.364Z,98933.93
2023-02-19T00:14:22.181Z,98939.56
2023-02-19T00:16:31.216Z,98934.50
2023-02-19T00:18:34.214Z,98932.64
2023-02-19T00:20:37.005Z,98928.51
2023-02-19T00:22:40.405Z,98926.22
2023-02-19T00:24:43.139Z,98927.55
2023-02-19T00:26:46.763Z,98931.02
2023-02-19T00:28:51.494Z,98926.41
2023-02-19T00:30:54.348Z,98915.82
2023-02-19T00:32:57.341Z,98915.72
2023-02-19T00:35:00.151Z,98912.92
2023-02-19T00:37:03.004Z,98910.11
2023-02-19T00:39:07.197Z,98903.95
2023-02-19T00:41:21.005Z,98895.89
2023-02-19T00:43:24.381Z,98897.48
2023-02-19T00:45:27.176Z,98893.09
2023-02-19T00:47:30.586Z,98890.34
2023-02-19T00:49:33.257Z,98876.38
2023-02-19T00:51:38.185Z,98880.59
2023-02-19T00:53:41.189Z,98887.89
2023-02-19T00:55:43.851Z,98889.92
2023-02-19T00:57:46.750Z,98885.89
2023-02-19T00:59:49.363Z,98885.88
2023-02-19T01:01:52.011Z,98884.73
2023-02-19T01:03:54.575Z,98871.45
2023-02-19T01:05:57.258Z,98874.83
2023-02-19T01:08:00.091Z,98872.30
2023-02-19T01:10:03.052Z,98863.83
2023-02-19T01:12:06.643Z,98863.14
2023-02-19T01:14:09.944Z,98864.36
2023-02-19T01:16:16.440Z,98858.20
2023-02-19T01:18:19.056Z,98855.89
2023-02-19T01:20:21.726Z,98848.70
2023-02-19T01:22:24.396Z,98844.15
2023-02-19T01:24:27.348Z,98839.95
2023-02-19T01:26:33.950Z,98833.56
2023-02-19T01:28:38.632Z,98831.83
2023-02-19T01:30:41.403Z,98822.46
2023-02-19T01:32:44.048Z,98817.53
2023-02-19T01:34:46.895Z,98815.77
2023-02-19T01:36:49.731Z,98821.00
2023-02-19T01:38:52.550Z,98825.15
2023-02-19T01:40:57.583Z,98822.16
2023-02-19T01:43:00.481Z,98825.78
2023-02-19T01:45:21.610Z,98828.55
2023-02-19T01:47:24.383Z,98827.34
2023-02-19T01:49:38.828Z,98825.08
2023-02-19T01:51:46.283Z,98819.74
2023-02-19T01:53:56.059Z,98814.23
2023-02-19T01:56:01.371Z,98816.33
2023-02-19T01:58:04.488Z,98810.77
2023-02-19T02:00:11.960Z,98803.92
2023-02-19T02:02:18.091Z,98806.22
2023-02-19T02:04:21.337Z,98803.09
2023-02-19T02:06:28.962Z,98807.26
2023-02-19T02:08:52.343Z,98809.57
2023-02-19T02:10:57.738Z,98801.67
2023-02-19T02:13:00.442Z,98799.01
2023-02-19T02:15:03.362Z,98805.58
2023-02-19T02:17:44.480Z,98803.98
2023-02-19T02:20:03.187Z,98800.70
2023-02-19T02:22:29.521Z,98796.27
2023-02-19T02:25:02.909Z,98792.00
2023-02-19T02:27:22.368Z,98781.82
2023-02-19T02:30:08.436Z,98784.07
2023-02-19T02:32:22.085Z,98788.27
2023-02-19T02:34:34.417Z,98782.30
2023-02-19T02:36:41.968Z,98772.20
2023-02-19T02:38:47.301Z,98772.73
2023-02-19T02:40:52.232Z,98768.48
2023-02-19T02:42:58.458Z,98767.66
2023-02-19T02:45:36.261Z,98764.33
2023-02-19T02:48:28.432Z,98772.63
2023-02-19T02:50:41.473Z,98768.92
2023-02-19T02:53:07.086Z,98766.65
2023-02-19T02:55:12.570Z,98764.83
2023-02-19T02:57:17.022Z,98763.35
2023-02-19T02:59:27.082Z,98763.48
2023-02-19T03:02:08.491Z,98764.05
2023-02-19T03:04:20.072Z,98763.23
2023-02-19T03:06:26.086Z,98760.90
2023-02-19T03:08:38.201Z,98763.34
2023-02-19T03:10:58.788Z,98756.24
2023-02-19T03:13:24.398Z,98754.52
2023-02-19T03:15:53.338Z,98750.64
2023-02-19T03:18:20.196Z,98749.52
2023-02-19T03:20:25.022Z,98744.88
2023-02-19T03:22:33.446Z,98744.94
2023-02-19T03:25:00.136Z,98748.02
2023-02-19T03:27:05.222Z,98747.42
2023-02-19T03:29:23.592Z,98745.63
2023-02-19T03:31:30.112Z,98748.02
2023-02-19T03:33:35.124Z,98745.41
2023-02-19T03:35:53.205Z,98748.67
2023-02-19T03:38:31.823Z,98745.33
2023-02-19T03:40:44.063Z,98744.52
2023-02-19T03:43:04.042Z,98738.50
2023-02-19T03:45:28.355Z,98735.59
2023-02-19T03:47:41.803Z,98737.35
2023-02-19T03:49:53.298Z,98739.66
2023-02-19T03:52:38.097Z,98726.19
2023-02-19T03:54:57.772Z,98734.19
2023-02-19T03:57:06.258Z,98731.42
2023-02-19T03:59:15.194Z,98734.08
2023-02-19T04:01:30.246Z,98736.82
2023-02-19T04:03:43.825Z,98740.54
2023-02-19T04:05:51.097Z,98740.66
2023-02-19T04:07:59.080Z,98743.27
2023-02-19T04:10:07.678Z,98743.79
2023-02-19T04:12:14.693Z,98740.53
2023-02-19T04:14:31.427Z,98743.55
2023-02-19T04:16:38.825Z,98742.10
2023-02-19T04:18:46.589Z,98740.30
2023-02-19T04:20:50.468Z,98740.83
2023-02-19T04:22:53.289Z,98743.45
2023-02-19T04:24:56.484Z,98746.02
2023-02-19T04:26:59.827Z,98745.77
2023-02-19T04:29:02.584Z,98745.80
2023-02-19T04:31:06.102Z,98750.71
2023-02-19T04:33:08.863Z,98756.77
2023-02-19T04:35:11.502Z,98754.68
2023-02-19T04:37:14.220Z,98761.42
2023-02-19T04:39:16.793Z,98762.18
2023-02-19T04:41:19.412Z,98760.08
2023-02-19T04:43:22.264Z,98767.50
2023-02-19T04:45:25.300Z,98768.48
2023-02-19T04:47:27.986Z,98768.65
2023-02-19T04:49:30.883Z,98769.58
2023-02-19T04:51:33.725Z,98769.88
2023-02-19T04:53:37.443Z,98767.72
2023-02-19T04:55:40.098Z,98767.27
2023-02-19T04:57:42.784Z,98766.84
2023-02-19T04:59:46.680Z,98766.36
2023-02-19T05:01:49.294Z,98765.67
2023-02-19T05:03:52.556Z,98762.02
2023-02-19T05:05:55.166Z,98759.56
2023-02-19T05:07:57.800Z,98755.23
2023-02-19T05:10:02.042Z,98756.44
2023-02-19T05:12:04.798Z,98750.14
2023-02-19T05:14:07.450Z,98748.73
2023-02-19T05:16:16.101Z,98741.77
2023-02-19T05:18:18.849Z,98739.20
2023-02-19T05:20:22.999Z,98734.33
2023-02-19T05:22:25.738Z,98728.07
2023-02-19T05:24:31.512Z,98725.39
2023-02-19T05:26:34.981Z,98713.39
2023-02-19T05:28:37.943Z,98724.70
2023-02-19T05:30:40.695Z,98730.74
2023-02-19T05:32:43.733Z,98724.02
2023-02-19T05:34:46.432Z,98729.95
2023-02-19T05:36:50.497Z,98733.17
2023-02-19T05:38:57.163Z,98734.41
2023-02-19T05:41:16.620Z,98736.45
2023-02-19T05:43:20.585Z,98740.35
2023-02-19T05:45:23.332Z,98749.63
2023-02-19T05:47:26.096Z,98751.39
2023-02-19T05:49:28.817Z,98757.73
2023-02-19T05:51:31.705Z,98760.52
2023-02-19T05:53:34.552Z,98754.48
2023-02-19T05:55:37.351Z,98756.83
2023-02-19T05:57:45.130Z,98754.59
2023-02-19T05:59:47.737Z,98753.98
2023-02-19T06:01:52.037Z,98754.06
2023-02-19T06:03:57.217Z,98754.94
2023-02-19T06:06:00.874Z,98759.71
2023-02-19T06:08:04.161Z,98767.34
2023-02-19T06:10:08.560Z,98760.73
2023-02-19T06:12:11.716Z,98768.11
2023-02-19T06:14:15.002Z,98769.44
2023-02-19T06:16:18.773Z,98768.16
2023-02-19T06:18:21.352Z,98769.47
2023-02-19T06:20:26.065Z,98769.23
2023-02-19T06:22:29.072Z,98768.13
2023-02-19T06:24:31.870Z,98765.16
2023-02-19T06:26:34.975Z,98765.54
2023-02-19T06:28:38.589Z,98766.48
2023-02-19T06:30:42.419Z,98764.30
2023-02-19T06:32:45.056Z,98762.99
2023-02-19T06:34:47.735Z,98775.66
2023-02-19T06:36:50.485Z,98773.23
2023-02-19T06:38:53.045Z,98772.73
2023-02-19T06:40:59.970Z,98777.10
2023-02-19T06:43:03.189Z,98779.72
2023-02-19T06:45:06.535Z,98782.84
2023-02-19T06:47:09.293Z,98789.90
2023-02-19T06:49:12.069Z,98796.31
2023-02-19T06:51:23.798Z,98800.30
2023-02-19T06:53:27.560Z,98803.43
2023-02-19T06:55:30.284Z,98810.70
2023-02-19T06:57:33.038Z,98812.50
2023-02-19T06:59:35.595Z,98817.84
2023-02-19T07:01:40.469Z,98818.05
2023-02-19T07:03:43.579Z,98815.09
2023-02-19T07:05:46.175Z,98818.44
2023-02-19T07:07:49.935Z,98820.79
2023-02-19T07:09:52.458Z,98820.04
2023-02-19T07:11:55.037Z,98819.94
2023-02-19T07:14:03.530Z,98819.52
2023-02-19T07:16:08.823Z,98833.77
2023-02-19T07:18:11.571Z,98839.52
2023-02-19T07:20:14.511Z,98842.14
2023-02-19T07:22:17.485Z,98846.36
2023-02-19T07:24:21.629Z,98850.34
2023-02-19T07:26:25.928Z,98854.59
2023-02-19T07:28:29.540Z,98862.21
2023-02-19T07:30:32.255Z,98868.79
2023-02-19T07:32:35.307Z,98870.95
2023-02-19T07:34:38.365Z,98876.27
2023-02-19T07:36:41.134Z,98878.07
2023-02-19T07:38:44.889Z,98882.44
2023-02-19T07:40:58.820Z,98881.21
2023-02-19T07:43:02.130Z,98888.27
2023-02-19T07:45:05.488Z,98890.13
2023-02-19T07:47:08.201Z,98888.59
2023-02-19T07:49:10.806Z,98890.24
2023-02-19T07:51:18.831Z,98891.08
2023-02-19T07:53:23.945Z,98895.00
2023-02-19T07:55:26.643Z,98892.15
2023-02-19T07:57:31.151Z,98896.63
2023-02-19T07:59:35.158Z,98893.88
2023-02-19T08:01:56.680Z,98892.56
2023-02-19T08:03:59.928Z,98892.94
2023-02-19T08:06:02.605Z,98892.59
2023-02-19T08:08:10.669Z,98888.77
2023-02-19T08:10:32.115Z,98896.90
2023-02-19T08:12:53.563Z,98902.19
2023-02-19T08:14:56.834Z,98902.44
2023-02-19T08:17:00.373Z,98899.23
2023-02-19T08:19:03.343Z,98907.17
2023-02-19T08:21:06.623Z,98905.99
2023-02-19T08:23:10.250Z,98916.84
2023-02-19T08:25:13.323Z,98918.02
2023-02-19T08:27:15.979Z,98921.80
2023-02-19T08:29:19.217Z,98930.61
2023-02-19T08:31:22.499Z,98932.04
2023-02-19T08:33:25.686Z,98938.85
2023-02-19T08:35:28.707Z,98944.53
2023-02-19T08:37:31.737Z,98946.63
2023-02-19T08:39:34.504Z,98949.40
2023-02-19T08:41:37.191Z,98952.73
2023-02-19T08:43:41.637Z,98964.27
2023-02-19T08:45:47.287Z,98961.55
2023-02-19T08:47:49.998Z,98967.92
2023-02-19T08:49:52.717Z,98976.61
2023-02-19T08:51:55.367Z,98978.14
2023-02-19T08:53:58.837Z,98987.36
2023-02-19T08:56:06.673Z,98986.61
2023-02-19T08:58:10.946Z,98985.18
2023-02-19T09:00:14.598Z,98985.44
2023-02-19T09:02:17.662Z,98986.95
2023-02-19T09:04:21.355Z,98990.62
2023-02-19T09:06:23.994Z,98997.58
2023-02-19T09:08:27.016Z,98999.48
2023-02-19T09:10:29.592Z,99005.13
2023-02-19T09:12:33.531Z,99012.39
2023-02-19T09:14:36.788Z,99013.30
2023-02-19T09:16:40.062Z,99019.33
2023-02-19T09:18:43.637Z,99021.13
2023-02-19T09:20:46.240Z,99019.92
2023-02-19T09:22:51.402Z,99014.09
2023-02-19T09:24:54.145Z,99012.17
2023-02-19T09:26:56.916Z,99014.35
2023-02-19T09:28:59.604Z,99014.46
2023-02-19T09:31:07.853Z,99020.96
2023-02-19T09:33:13.246Z,99029.70
2023-02-19T09:35:16.452Z,99029.10
2023-02-19T09:37:19.330Z,99034.97
2023-02-19T09:39:22.223Z,99036.83
2023-02-19T09:41:30.078Z,99036.65
2023-02-19T09:43:33.776Z,99030.48
2023-02-19T09:45:38.073Z,99033.83
2023-02-19T09:47:41.432Z,99033.23
2023-02-19T09:49:51.585Z,99038.96
2023-02-19T09:52:00.209Z,99042.80
2023-02-19T09:54:07.161Z,99041.13
2023-02-19T09:56:10.216Z,99039.77
2023-02-19T09:58:27.411Z,99041.52
2023-02-19T10:00:34.338Z,99038.96
2023-02-19T10:02:37.436Z,99038.36
2023-02-19T10:04:43.297Z,99040.58
2023-02-19T10:06:47.684Z,99039.64
2023-02-19T10:09:05.718Z,99043.41
2023-02-19T10:11:13.230Z,99042.80
2023-02-19T10:13:20.469Z,99051.42
2023-02-19T10:15:31.807Z,99050.41
2023-02-19T10:17:37.818Z,99050.39
2023-02-19T10:19:41.078Z,99058.02
2023-02-19T10:21:44.167Z,99056.09
2023-02-19T10:23:51.843Z,99046.25
2023-02-19T10:25:58.994Z,99046.02
2023-02-19T10:28:02.714Z,99053.17
2023-02-19T10:30:07.252Z,99060.24
2023-02-19T10:32:25.362Z,99066.31
2023-02-19T10:34:28.411Z,99060.03
2023-02-19T10:36:40.064Z,99067.13
2023-02-19T10:38:47.764Z,99066.27
2023-02-19T10:40:58.877Z,99061.55
2023-02-19T10:43:05.512Z,99062.70
2023-02-19T10:45:22.917Z,99060.86
2023-02-19T10:47:27.822Z,99061.52
2023-02-19T10:49:38.531Z,99065.27
2023-02-19T10:51:44.078Z,99072.89
2023-02-19T10:53:49.979Z,99081.80
2023-02-19T10:56:10.824Z,99081.23
2023-02-19T10:58:26.189Z,99081.63
2023-02-19T11:00:30.588Z,99080.30
2023-02-19T11:02:34.623Z,99091.74
2023-02-19T11:04:39.481Z,99086.64
2023-02-19T11:06:43.584Z,99095.27
2023-02-19T11:08:59.986Z,99096.13
2023-02-19T11:11:03.342Z,99100.58
2023-02-19T11:13:16.124Z,99107.40
2023-02-19T11:15:24.080Z,99106.52
2023-02-19T11:17:30.154Z,99105.23
2023-02-19T11:19:41.888Z,99107.15
2023-02-19T11:21:44.549Z,99114.39
2023-02-19T11:23:49.327Z,99121.48
2023-02-19T11:25:54.113Z,99125.86
2023-02-19T11:28:08.234Z,99124.88
2023-02-19T11:30:22.698Z,99127.81
2023-02-19T11:32:29.362Z,99123.42
2023-02-19T11:34:34.955Z,99128.02
2023-02-19T11:36:38.527Z,99128.66
2023-02-19T11:38:42.333Z,99132.31
2023-02-19T11:40:59.091Z,99126.59
2023-02-19T11:43:20.855Z,99123.77
2023-02-19T11:45:35.706Z,99129.88
2023-02-19T11:48:10.837Z,99128.66
2023-02-19T11:50:26.652Z,99125.83
2023-02-19T11:52:34.849Z,99133.34
2023-02-19T11:54:52.051Z,99132.02
2023-02-19T11:57:27.331Z,99131.11
2023-02-19T11:59:44.857Z,99135.58
2023-02-19T12:02:26.563Z,99137.80
2023-02-19T12:04:36.864Z,99139.02
2023-02-19T12:06:46.925Z,99134.11
2023-02-19T12:09:21.458Z,99140.19
2023-02-19T12:11:36.363Z,99129.73
2023-02-19T12:14:08.648Z,99126.38
2023-02-19T12:16:29.536Z,99122.21
2023-02-19T12:18:56.429Z,99121.21
2023-02-19T12:21:25.511Z,99131.56
2023-02-19T12:23:46.427Z,99165.16
2023-02-19T12:26:12.406Z,99181.61
2023-02-19T12:29:04.274Z,99183.61
2023-02-19T12:31:35.096Z,99182.77
2023-02-19T12:34:07.153Z,99190.06
2023-02-19T12:36:43.836Z,99191.52
2023-02-19T12:39:02.666Z,99194.60
2023-02-19T12:41:11.808Z,99192.30
2023-02-19T12:43:18.386Z,99188.25
2023-02-19T12:45:42.393Z,99182.65
2023-02-19T12:48:00.052Z,99183.41
2023-02-19T12:50:15.483Z,99179.80
2023-02-19T12:52:31.750Z,99178.00
2023-02-19T12:54:56.288Z,99164.11
2023-02-19T12:57:23.056Z,99162.11
2023-02-19T12:59:38.056Z,99170.66
2023-02-19T13:01:49.960Z,99173.89
2023-02-19T13:04:17.828Z,99170.66
2023-02-19T13:06:50.062Z,99177.25
2023-02-19T13:09:10.745Z,99184.73
2023-02-19T13:11:21.572Z,99179.66
2023-02-19T13:13:34.677Z,99180.02
2023-02-19T13:15:48.522Z,99170.86
2023-02-19T13:17:54.831Z,99174.67
2023-02-19T13:20:13.640Z,99169.34
2023-02-19T13:22:50.442Z,99166.14
2023-02-19T13:24:55.493Z,99165.11
2023-02-19T13:27:29.917Z,99165.66
2023-02-19T13:30:30.204Z,99175.98
2023-02-19T13:33:00.888Z,99185.90
2023-02-19T13:35:34.673Z,99186.23
2023-02-19T13:37:37.755Z,99189.46
2023-02-19T13:39:53.239Z,99196.02
2023-02-19T13:41:57.439Z,99197.62
2023-02-19T13:44:06.392Z,99197.24
2023-02-19T13:46:12.315Z,99198.78
2023-02-19T13:48:27.115Z,99203.83
2023-02-19T13:50:34.580Z,99206.11
2023-02-19T13:52:39.517Z,99197.75
2023-02-19T13:54:42.286Z,99198.70
2023-02-19T13:56:45.186Z,99202.23
2023-02-19T13:59:14.136Z,99201.14
2023-02-19T14:01:18.482Z,99202.92
2023-02-19T14:03:30.687Z,99203.13
2023-02-19T14:06:02.749Z,99205.44
2023-02-19T14:08:09.322Z,99213.58
2023-02-19T14:10:15.140Z,99214.30
2023-02-19T14:12:21.008Z,99214.57
2023-02-19T14:14:27.118Z,99218.98
2023-02-19T14:16:37.732Z,99223.64
2023-02-19T14:18:46.023Z,99225.00
2023-02-19T14:20:49.201Z,99229.08
2023-02-19T14:23:01.671Z,99230.55
2023-02-19T14:25:18.495Z,99233.94
2023-02-19T14:27:21.699Z,99233.13
2023-02-19T14:29:24.813Z,99235.52
2023-02-19T14:31:33.915Z,99234.13
2023-02-19T14:33:43.321Z,99238.27
2023-02-19T14:35:49.278Z,99240.06
2023-02-19T14:37:55.459Z,99240.42
2023-02-19T14:39:58.855Z,99240.23
2023-02-19T14:42:33.486Z,99241.48
2023-02-19T14:44:52.234Z,99237.50
2023-02-19T14:47:07.339Z,99235.55
2023-02-19T14:49:24.683Z,99233.83
2023-02-19T14:51:39.213Z,99236.14
2023-02-19T14:53:44.696Z,99236.67
2023-02-19T14:55:49.022Z,99237.27
2023-02-19T14:57:58.283Z,99236.98
2023-02-19T15:00:24.089Z,99229.80
2023-02-19T15:02:30.978Z,99232.45
2023-02-19T15:04:37.628Z,99233.91
2023-02-19T15:06:40.292Z,99234.28
2023-02-19T15:08:51.449Z,99239.59
2023-02-19T15:10:55.767Z,99240.73
2023-02-19T15:13:06.465Z,99244.08
2023-02-19T15:15:22.736Z,99258.80
2023-02-19T15:17:29.124Z,99249.19
2023-02-19T15:19:36.581Z,99257.06
2023-02-19T15:21:47.022Z,99256.95
2023-02-19T15:23:50.442Z,99248.64
2023-02-19T15:25:53.619Z,99261.85
2023-02-19T15:27:56.857Z,99258.25
2023-02-19T15:30:00.247Z,99268.80
2023-02-19T15:32:17.554Z,99267.98
2023-02-19T15:34:23.603Z,99263.52
2023-02-19T15:36:34.831Z,99262.40
2023-02-19T15:38:37.606Z,99269.63
2023-02-19T15:40:45.009Z,99277.32
2023-02-19T15:42:47.836Z,99273.42
2023-02-19T15:45:18.719Z,99283.63
2023-02-19T15:47:29.736Z,99300.43
2023-02-19T15:49:51.550Z,99298.92
2023-02-19T15:52:01.554Z,99306.23
2023-02-19T15:54:14.585Z,99317.71
2023-02-19T15:56:29.369Z,99333.57
2023-02-19T15:58:38.023Z,99335.52
2023-02-19T16:00:53.092Z,99330.58
2023-02-19T16:02:56.073Z,99335.54
2023-02-19T16:05:02.134Z,99327.17
2023-02-19T16:07:05.146Z,99319.34
2023-02-19T16:09:25.251Z,99323.08
2023-02-19T16:11:37.480Z,99327.73
2023-02-19T16:13:40.199Z,99326.67
2023-02-19T16:15:57.802Z,99323.52
2023-02-19T16:18:00.827Z,99327.77
2023-02-19T16:20:04.394Z,99327.48
2023-02-19T16:22:10.365Z,99331.66
2023-02-19T16:24:28.587Z,99337.20
2023-02-19T16:26:53.079Z,99341.40
2023-02-19T16:28:56.850Z,99340.50
2023-02-19T16:31:03.816Z,99347.49
2023-02-19T16:33:20.103Z,99346.47
2023-02-19T16:35:40.134Z,99341.79
2023-02-19T16:37:57.951Z,99344.27
2023-02-19T16:40:09.554Z,99346.45
2023-02-19T16:42:14.727Z,99354.31
2023-02-19T16:44:21.134Z,99350.17
2023-02-19T16:46:24.822Z,99353.50
2023-02-19T16:48:28.336Z,99356.65
2023-02-19T16:50:31.301Z,99360.90
2023-02-19T16:52:38.897Z,99363.55
2023-02-19T16:54:41.548Z,99360.52
2023-02-19T16:56:44.187Z,99352.84
2023-02-19T16:58:47.084Z,99356.73
2023-02-19T17:00:50.992Z,99365.33
2023-02-19T17:02:57.390Z,99375.72
2023-02-19T17:05:00.727Z,99375.15
2023-02-19T17:07:06.169Z,99373.05
2023-02-19T17:09:09.238Z,99376.69
2023-02-19T17:11:14.987Z,99379.26
2023-02-19T17:13:17.756Z,99386.79
2023-02-19T17:15:20.970Z,99391.02
2023-02-19T17:17:23.669Z,99396.65
2023-02-19T17:19:26.389Z,99397.63
2023-02-19T17:21:31.986Z,99403.83
2023-02-19T17:23:35.298Z,99409.33
2023-02-19T17:25:38.431Z,99410.86
2023-02-19T17:27:41.299Z,99416.36
2023-02-19T17:29:46.305Z,99417.39
2023-02-19T17:31:49.312Z,99418.93
2023-02-19T17:33:52.102Z,99425.66
2023-02-19T17:35:55.302Z,99431.84
2023-02-19T17:37:57.982Z,99434.16
2023-02-19T17:40:00.602Z,99438.67
2023-02-19T17:42:03.439Z,99439.73
2023-02-19T17:44:06.354Z,99438.35
2023-02-19T17:46:15.570Z,99444.61
2023-02-19T17:48:19.331Z,99446.89
2023-02-19T17:50:25.226Z,99451.89
2023-02-19T17:52:29.336Z,99448.96
2023-02-19T17:54:32.018Z,99449.77
2023-02-19T17:56:35.080Z,99448.54
2023-02-19T17:58:37.801Z,99450.27
2023-02-19T18:00:40.671Z,99456.38
2023-02-19T18:02:43.513Z,99454.55
2023-02-19T18:04:46.241Z,99446.91
2023-02-19T18:06:48.933Z,99449.30
2023-02-19T18:08:53.552Z,99450.37
2023-02-19T18:10:56.459Z,99454.67
2023-02-19T18:12:59.409Z,99455.39
2023-02-19T18:15:02.511Z,99459.27
2023-02-19T18:17:05.594Z,99461.31
2023-02-19T18:19:11.317Z,99464.01
2023-02-19T18:21:14.394Z,99461.38
2023-02-19T18:23:20.671Z,99463.88
2023-02-19T18:25:23.786Z,99465.78
2023-02-19T18:27:26.529Z,99469.98
2023-02-19T18:29:31.044Z,99472.42
2023-02-19T18:31:34.146Z,99470.89
2023-02-19T18:33:36.891Z,99473.73
2023-02-19T18:35:40.092Z,99481.29
2023-02-19T18:37:42.819Z,99480.05
2023-02-19T18:39:45.826Z,99480.61
2023-02-19T18:41:50.901Z,99471.29
2023-02-19T18:43:53.678Z,99469.00
2023-02-19T18:45:56.472Z,99467.64
2023-02-19T18:47:59.221Z,99466.38
2023-02-19T18:50:03.611Z,99473.67
2023-02-19T18:52:06.642Z,99478.60
2023-02-19T18:54:09.920Z,99476.10
2023-02-19T18:56:14.016Z,99474.25
2023-02-19T18:58:17.020Z,99482.52
2023-02-19T19:00:23.556Z,99477.14
2023-02-19T19:02:29.738Z,99477.10
2023-02-19T19:04:38.092Z,99471.09
2023-02-19T19:06:41.466Z,99471.98
2023-02-19T19:08:44.630Z,99465.86
2023-02-19T19:10:47.452Z,99467.42
2023-02-19T19:12:50.843Z,99476.80
2023-02-19T19:14:53.900Z,99479.41
2023-02-19T19:16:56.641Z,99473.89
2023-02-19T19:18:59.239Z,99477.41
2023-02-19T19:21:03.528Z,99477.40
2023-02-19T19:23:09.189Z,99477.10
2023-02-19T19:25:12.115Z,99479.63
2023-02-19T19:27:15.067Z,99483.50
2023-02-19T19:29:20.943Z,99490.65
2023-02-19T19:31:27.469Z,99487.88
2023-02-19T19:33:30.616Z,99487.70
2023-02-19T19:35:34.107Z,99487.20
2023-02-19T19:37:36.800Z,99484.05
2023-02-19T19:39:39.900Z,99484.48
2023-02-19T19:41:42.871Z,99490.64
2023-02-19T19:43:46.992Z,99489.41
2023-02-19T19:45:50.734Z,99491.91
2023-02-19T19:47:54.490Z,99504.44
2023-02-19T19:49:58.228Z,99513.71
2023-02-19T19:52:01.299Z,99514.27
2023-02-19T19:54:04.222Z,99513.77
2023-02-19T19:56:07.306Z,99509.11
2023-02-19T19:58:11.016Z,99510.39
2023-02-19T20:00:16.120Z,99505.08
2023-02-19T20:02:19.321Z,99507.53
2023-02-19T20:04:24.150Z,99507.33
2023-02-19T20:06:30.969Z,99514.56
2023-02-19T20:08:33.958Z,99515.17
2023-02-19T20:10:39.079Z,99515.27
2023-02-19T20:12:41.948Z,99507.86
2023-02-19T20:14:46.733Z,99512.11
2023-02-19T20:16:50.700Z,99513.68
2023-02-19T20:18:54.655Z,99515.84
2023-02-19T20:20:57.254Z,99517.46
2023-02-19T20:22:59.954Z,99518.55
2023-02-19T20:25:02.773Z,99516.49
2023-02-19T20:27:07.919Z,99511.31
2023-02-19T20:29:10.853Z,99511.52
2023-02-19T20:31:14.111Z,99509.65
2023-02-19T20:33:18.435Z,99511.67
2023-02-19T20:35:21.708Z,99513.83
2023-02-19T20:37:24.636Z,99515.28
2023-02-19T20:39:29.274Z,99514.98
2023-02-19T20:41:33.616Z,99518.88
2023-02-19T20:43:36.801Z,99518.84
2023-02-19T20:45:41.022Z,99515.29
2023-02-19T20:47:43.705Z,99521.05
2023-02-19T20:49:46.834Z,99526.30
2023-02-19T20:51:51.852Z,99525.48
2023-02-19T20:53:54.548Z,99524.91
2023-02-19T20:55:57.766Z,99528.48
2023-02-19T20:58:00.596Z,99531.38
2023-02-19T21:00:05.193Z,99536.65
2023-02-19T21:02:14.349Z,99542.55
2023-02-19T21:04:19.181Z,99542.56
2023-02-19T21:06:22.643Z,99544.08
2023-02-19T21:08:25.305Z,99543.30
2023-02-19T21:10:28.060Z,99540.45
2023-02-19T21:12:32.031Z,99535.23
2023-02-19T21:14:34.980Z,99536.28
2023-02-19T21:16:37.712Z,99539.25
2023-02-19T21:18:40.474Z,99546.00
2023-02-19T21:20:46.936Z,99542.05
2023-02-19T21:22:49.684Z,99538.80
2023-02-19T21:24:53.224Z,99533.43
2023-02-19T21:26:57.490Z,99534.94
2023-02-19T21:29:00.560Z,99537.65
2023-02-19T21:31:03.297Z,99536.51
2023-02-19T21:33:06.436Z,99538.61
2023-02-19T21:35:09.267Z,99545.44
2023-02-19T21:37:12.317Z,99548.92
2023-02-19T21:39:18.361Z,99546.17
2023-02-19T21:41:21.374Z,99554.90
2023-02-19T21:43:24.318Z,99555.28
2023-02-19T21:45:26.964Z,99554.36
2023-02-19T21:47:30.230Z,99556.47
2023-02-19T21:49:32.918Z,99556.03
2023-02-19T21:51:39.320Z,99559.66
2023-02-19T21:53:42.448Z,99555.42
2023-02-19T21:55:57.955Z,99561.95
2023-02-19T21:58:01.468Z,99568.33
2023-02-19T22:00:05.190Z,99573.64
2023-02-19T22:02:09.280Z,99578.70
2023-02-19T22:04:17.146Z,99574.52
2023-02-19T22:06:24.264Z,99576.05
2023-02-19T22:08:26.896Z,99573.52
2023-02-19T22:10:30.252Z,99571.94
2023-02-19T22:12:32.932Z,99574.52
2023-02-19T22:14:35.899Z,99577.84
2023-02-19T22:16:38.759Z,99581.21
2023-02-19T22:18:47.180Z,99578.33
2023-02-19T22:20:49.776Z,99570.45
2023-02-19T22:22:54.606Z,99571.66
2023-02-19T22:24:57.445Z,99578.47
2023-02-19T22:27:00.472Z,99574.02
2023-02-19T22:29:07.309Z,99574.95
2023-02-19T22:31:10.225Z,99565.57
2023-02-19T22:33:12.962Z,99570.18
2023-02-19T22:35:15.994Z,99567.88
2023-02-19T22:37:18.722Z,99570.58
2023-02-19T22:39:24.730Z,99564.35
2023-02-19T22:41:27.318Z,99564.37
2023-02-19T22:43:30.296Z,99557.91
2023-02-19T22:45:32.798Z,99559.77
2023-02-19T22:47:35.607Z,99561.86
2023-02-19T22:49:39.513Z,99562.23
2023-02-19T22:51:49.096Z,99563.39
2023-02-19T22:53:54.654Z,99559.77
2023-02-19T22:55:57.397Z,99560.80
2023-02-19T22:58:00.212Z,99561.63
2023-02-19T23:00:07.591Z,99567.09
2023-02-19T23:02:10.517Z,99564.73
2023-02-19T23:04:13.355Z,99556.39
2023-02-19T23:06:21.790Z,99559.23
2023-02-19T23:08:24.658Z,99563.41
2023-02-19T23:10:28.321Z,99560.14
2023-02-19T23:12:31.027Z,99557.30
2023-02-19T23:14:34.112Z,99559.01
2023-02-19T23:16:37.108Z,99555.67
2023-02-19T23:18:39.771Z,99551.58
2023-02-19T23:20:42.429Z,99552.11
2023-02-19T23:22:45.178Z,99549.31
2023-02-19T23:24:47.860Z,99556.23
2023-02-19T23:26:52.800Z,99554.05
2023-02-19T23:28:55.729Z,99558.83
2023-02-19T23:30:58.493Z,99555.33
2023-02-19T23:33:01.214Z,99554.75
2023-02-19T23:35:03.865Z,99562.39
2023-02-19T23:37:06.746Z,99565.45
2023-02-19T23:39:12.061Z,99565.24
2023-02-19T23:41:16.374Z,99566.25
2023-02-19T23:43:19.009Z,99562.81
2023-02-19T23:45:23.560Z,99560.36
2023-02-19T23:47:26.865Z,99560.79
2023-02-19T23:49:29.532Z,99559.46
2023-02-19T23:51:32.198Z,99563.34
2023-02-19T23:53:35.058Z,99559.25
2023-02-19T23:55:37.680Z,99560.02
2023-02-19T23:57:40.509Z,99563.34
2023-02-19T23:59:44.882Z,99563.48
